Time;durP1;ratioP1;P1;durP2;ratioP2;P2;SDS_P1;SDS_P2;PMS_P1;PMS_P2;Temp;Humidity;BMP_temperature;BMP_pressure;BME280_temperature;BME280_humidity;BME280_pressure;Samples;Min_cycle;Max_cycle;Signal;HPM_P1;HPM_P2
2023/10/07 00:04:38;;;;;;;858.83;767.00;;;;;;;;;;10481613;28;20029;-81
2023/10/07 00:09:46;;;;;;;846.97;755.88;;;;;;;;;;10442404;28;20553;-84
2023/10/07 00:14:46;;;;;;;822.92;732.08;;;;;;;;;;10465194;28;20025;-77
2023/10/07 00:19:47;;;;;;;840.92;749.83;;;;;;;;;;10482749;28;20037;-75
2023/10/07 00:24:48;;;;;;;820.42;730.38;;;;;;;;;;10484641;28;20028;-80
2023/10/07 00:29:54;;;;;;;803.15;708.15;;;;;;;;;;10477791;28;20661;-80
2023/10/07 00:35:00;;;;;;;797.85;701.45;;;;;;;;;;10450241;28;20416;-74
2023/10/07 00:40:13;;;;;;;864.50;773.97;;;;;;;;;;10488401;28;20386;-79
2023/10/07 00:45:16;;;;;;;821.92;731.75;;;;;;;;;;10484066;28;20373;-79
2023/10/07 00:50:16;;;;;;;792.92;694.42;;;;;;;;;;10482596;28;20075;-80
2023/10/07 00:55:37;;;;;;;795.10;693.83;;;;;;;;;;10466299;28;20165;-82
2023/10/07 01:00:48;;;;;;;785.17;658.67;;;;;;;;;;10485167;28;20127;-84
2023/10/07 01:11:19;;;;;;;798.55;710.28;;;;;;;;;;10497208;28;20029;-79
2023/10/07 01:21:55;;;;;;;514.17;462.58;;;;;;;;;;10474921;28;20059;-76
2023/10/07 01:27:02;;;;;;;22.67;20.20;;;;;;;;;;10469984;28;20385;-79
2023/10/07 01:32:12;;;;;;;221.07;207.35;;;;;;;;;;10489271;28;20082;-76
2023/10/07 01:37:15;;;;;;;45.95;42.88;;;;;;;;;;10489699;28;20087;-82
2023/10/07 01:42:25;;;;;;;21.83;7.47;;;;;;;;;;10488785;28;20040;-79
2023/10/07 01:47:29;;;;;;;9.15;4.72;;;;;;;;;;10458403;28;20025;-79
2023/10/07 01:52:31;;;;;;;10.63;5.03;;;;;;;;;;10481449;28;20028;-76
2023/10/07 01:57:31;;;;;;;13.48;5.15;;;;;;;;;;10488391;28;20032;-75
2023/10/07 02:02:31;;;;;;;8.20;5.32;;;;;;;;;;10487824;28;20020;-78
2023/10/07 02:07:36;;;;;;;8.10;5.07;;;;;;;;;;10486857;28;20054;-76
2023/10/07 02:12:36;;;;;;;9.32;5.70;;;;;;;;;;10487124;28;20045;-80
2023/10/07 02:17:37;;;;;;;12.43;6.03;;;;;;;;;;10454492;28;20155;-78
2023/10/07 02:22:39;;;;;;;8.73;4.80;;;;;;;;;;10481999;28;20027;-77
2023/10/07 02:27:41;;;;;;;8.50;5.22;;;;;;;;;;10488792;28;20020;-79
2023/10/07 02:32:42;;;;;;;9.60;6.38;;;;;;;;;;10486717;28;20070;-79
2023/10/07 02:37:49;;;;;;;7.80;5.13;;;;;;;;;;10485965;28;20085;-80
2023/10/07 02:42:54;;;;;;;13.48;5.20;;;;;;;;;;10486503;28;20031;-84
2023/10/07 02:47:54;;;;;;;11.75;6.22;;;;;;;;;;10485388;28;20424;-75
2023/10/07 02:52:55;;;;;;;12.07;5.65;;;;;;;;;;10487359;28;20025;-77
2023/10/07 02:57:56;;;;;;;9.95;6.88;;;;;;;;;;10488136;28;20399;-79
2023/10/07 03:08:20;;;;;;;;;;;;;;;;;;10486948;28;20017;-83
2023/10/07 03:13:22;;;;;;;138.35;130.85;;;;;;;;;;10484965;28;19904;-76
2023/10/07 03:18:24;;;;;;;30.42;28.08;;;;;;;;;;10484566;28;20078;-82
2023/10/07 03:23:26;;;;;;;89.22;84.03;;;;;;;;;;10487654;28;20020;-83
2023/10/07 03:28:36;;;;;;;122.30;115.10;;;;;;;;;;10485081;28;20052;-79
2023/10/07 03:38:43;;;;;;;77.60;73.38;;;;;;;;;;10487147;28;20017;-79
2023/10/07 03:43:45;;;;;;;9.93;6.10;;;;;;;;;;10484826;28;20016;-76
2023/10/07 03:48:53;;;;;;;209.18;198.55;;;;;;;;;;10484726;28;20464;-81
2023/10/07 03:54:00;;;;;;;163.60;154.90;;;;;;;;;;10471517;28;20492;-78
2023/10/07 03:59:01;;;;;;;184.88;175.68;;;;;;;;;;10483987;28;20028;-75
2023/10/07 04:04:01;;;;;;;46.33;43.23;;;;;;;;;;10485548;28;20030;-80
2023/10/07 04:09:12;;;;;;;43.10;40.33;;;;;;;;;;10482954;28;20159;-80
2023/10/07 04:14:19;;;;;;;143.38;135.48;;;;;;;;;;10481549;28;20073;-84
2023/10/07 04:24:28;;;;;;;215.32;204.18;;;;;;;;;;10484364;28;20515;-80
2023/10/07 04:29:32;;;;;;;205.95;194.90;;;;;;;;;;10467847;28;20037;-76
2023/10/07 04:34:36;;;;;;;41.15;38.40;;;;;;;;;;10464276;28;20060;-81
2023/10/07 04:40:53;;;;;;;185.20;175.38;;;;;;;;;;10460973;28;20032;-75
2023/10/07 04:50:38;;;;;;;320.52;302.85;;;;;;;;;;10362524;28;20025;-71
2023/10/07 04:55:41;;;;;;;375.60;353.88;;;;;;;;;;10428436;28;20025;-81
2023/10/07 05:01:05;;;;;;;413.98;390.00;;;;;;;;;;10491255;28;20020;-79
2023/10/07 05:06:05;;;;;;;540.72;507.98;;;;;;;;;;10490438;28;20029;-83
2023/10/07 05:11:06;;;;;;;518.50;486.90;;;;;;;;;;10490761;28;20020;-86
2023/10/07 05:16:27;;;;;;;609.90;566.45;;;;;;;;;;10464038;28;20645;-80
2023/10/07 05:21:27;;;;;;;669.28;616.97;;;;;;;;;;10494039;28;20028;-84
2023/10/07 05:26:30;;;;;;;656.20;601.23;;;;;;;;;;10463730;28;20536;-85
2023/10/07 05:31:48;;;;;;;701.60;647.85;;;;;;;;;;10466017;28;20032;-80
2023/10/07 05:36:48;;;;;;;722.07;666.23;;;;;;;;;;10481659;28;21066;-81
2023/10/07 05:41:49;;;;;;;730.95;671.55;;;;;;;;;;10459524;28;20470;-82
2023/10/07 05:46:50;;;;;;;750.75;690.90;;;;;;;;;;10477082;28;20115;-84
2023/10/07 05:51:50;;;;;;;736.05;674.47;;;;;;;;;;10485580;28;20025;-80
2023/10/07 05:56:51;;;;;;;707.65;646.80;;;;;;;;;;10460051;28;20028;-80
2023/10/07 06:01:51;;;;;;;757.55;692.85;;;;;;;;;;10465234;28;20073;-81
2023/10/07 06:06:53;;;;;;;791.83;723.50;;;;;;;;;;10457164;28;20582;-83
2023/10/07 06:11:53;;;;;;;734.63;663.30;;;;;;;;;;10454864;28;20031;-81
2023/10/07 06:16:55;;;;;;;768.70;693.75;;;;;;;;;;10470835;28;20016;-83
2023/10/07 06:22:10;;;;;;;782.85;705.10;;;;;;;;;;10443496;28;20025;-88
2023/10/07 06:27:21;;;;;;;832.13;749.85;;;;;;;;;;10458021;28;20041;-88
2023/10/07 06:32:22;;;;;;;821.63;741.15;;;;;;;;;;10466983;28;20503;-88
2023/10/07 06:37:28;;;;;;;825.72;746.47;;;;;;;;;;10370508;28;2150399;-82
2023/10/07 06:42:40;;;;;;;817.00;735.05;;;;;;;;;;10465208;28;20727;-86
2023/10/07 06:47:40;;;;;;;892.22;805.38;;;;;;;;;;10449150;28;20086;-84
2023/10/07 06:52:43;;;;;;;838.80;751.40;;;;;;;;;;10471043;28;20068;-80
2023/10/07 06:57:47;;;;;;;876.13;786.20;;;;;;;;;;10476574;28;21607;-81
2023/10/07 07:02:54;;;;;;;879.63;789.30;;;;;;;;;;10470204;28;20047;-84
2023/10/07 07:07:55;;;;;;;901.63;811.58;;;;;;;;;;10454904;28;20139;-83
2023/10/07 07:12:58;;;;;;;909.15;816.50;;;;;;;;;;10457258;28;20013;-83
2023/10/07 07:18:19;;;;;;;887.05;795.60;;;;;;;;;;10465503;28;20024;-87
2023/10/07 07:23:35;;;;;;;927.10;833.25;;;;;;;;;;10466226;28;20108;-88
2023/10/07 07:28:36;;;;;;;909.53;816.45;;;;;;;;;;10466930;28;20026;-85
2023/10/07 07:33:37;;;;;;;932.97;839.05;;;;;;;;;;10464718;28;20012;-85
2023/10/07 07:38:44;;;;;;;928.70;834.60;;;;;;;;;;10483608;28;20045;-85
2023/10/07 07:43:45;;;;;;;937.13;843.30;;;;;;;;;;10464668;28;20108;-81
2023/10/07 07:48:48;;;;;;;948.08;853.33;;;;;;;;;;10458340;28;21486;-81
2023/10/07 07:53:48;;;;;;;947.08;852.55;;;;;;;;;;10461697;28;20458;-82
2023/10/07 07:58:52;;;;;;;948.30;853.53;;;;;;;;;;10473720;28;20016;-85
2023/10/07 08:03:55;;;;;;;977.35;881.65;;;;;;;;;;10465283;28;20028;-81
2023/10/07 08:08:56;;;;;;;982.20;886.28;;;;;;;;;;10457681;28;20020;-81
2023/10/07 08:13:56;;;;;;;990.60;893.72;;;;;;;;;;10479374;28;20447;-81
2023/10/07 08:19:04;;;;;;;971.70;875.90;;;;;;;;;;10477194;28;20020;-80
2023/10/07 08:24:23;;;;;;;1033.55;934.53;;;;;;;;;;10476161;28;20019;-80
2023/10/07 08:29:34;;;;;;;158.90;148.17;;;;;;;;;;10496775;28;20479;-84
2023/10/07 08:34:35;;;;;;;494.58;458.77;;;;;;;;;;10474173;28;20068;-83
2023/10/07 08:39:44;;;;;;;249.00;231.88;;;;;;;;;;10464597;28;20120;-82
2023/10/07 08:44:58;;;;;;;52.92;48.97;;;;;;;;;;10479281;28;20021;-82
2023/10/07 08:50:06;;;;;;;17.45;7.53;;;;;;;;;;10505236;28;20139;-80
2023/10/07 08:55:25;;;;;;;22.77;8.98;;;;;;;;;;10474120;28;20025;-89
2023/10/07 09:00:32;;;;;;;23.92;21.58;;;;;;;;;;10471565;28;20013;-89
2023/10/07 09:05:33;;;;;;;;;;;;;;;;;;10466494;28;20029;-82
2023/10/07 09:10:36;;;;;;;20.30;16.50;;;;;;;;;;10477965;28;20424;-84
2023/10/07 09:15:42;;;;;;;24.88;18.15;;;;;;;;;;10477217;28;20025;-85
2023/10/07 09:20:50;;;;;;;18.83;8.18;;;;;;;;;;10481126;28;20133;-84
2023/10/07 09:25:55;;;;;;;15.90;7.85;;;;;;;;;;10467348;28;20104;-82
2023/10/07 09:30:58;;;;;;;13.32;6.30;;;;;;;;;;10464968;28;20641;-82
2023/10/07 09:46:39;;;;;;;15.52;5.45;;;;;;;;;;10453524;28;20017;-89
2023/10/07 09:51:47;;;;;;;14.77;7.47;;;;;;;;;;10481950;28;20099;-83
2023/10/07 09:57:06;;;;;;;18.02;7.20;;;;;;;;;;10458306;28;20460;-82
2023/10/07 10:02:32;;;;;;;20.23;15.00;;;;;;;;;;10461420;28;20027;-81
2023/10/07 10:07:39;;;;;;;46.53;42.65;;;;;;;;;;10461217;28;20378;-84
2023/10/07 10:18:40;;;;;;;27.13;24.00;;;;;;;;;;10474882;28;20048;-87
2023/10/07 10:23:44;;;;;;;26.75;24.33;;;;;;;;;;10484421;28;20027;-85
2023/10/07 10:28:59;;;;;;;28.20;25.23;;;;;;;;;;10490146;28;20348;-81
2023/10/07 10:34:08;;;;;;;13.77;7.75;;;;;;;;;;10481436;28;20166;-80
2023/10/07 10:39:18;;;;;;;10.75;7.90;;;;;;;;;;10481428;28;20051;-80
2023/10/07 10:44:20;;;;;;;13.43;11.48;;;;;;;;;;10467962;28;20023;-83
2023/10/07 10:49:21;;;;;;;12.07;6.38;;;;;;;;;;10458094;28;20039;-78
2023/10/07 10:54:23;;;;;;;10.83;5.30;;;;;;;;;;10463216;28;20024;-83
2023/10/07 10:59:37;;;;;;;13.65;10.27;;;;;;;;;;10475758;28;20354;-83
2023/10/07 11:04:40;;;;;;;60.28;55.88;;;;;;;;;;10470538;28;20507;-80
2023/10/07 11:09:42;;;;;;;54.35;50.55;;;;;;;;;;10465059;28;20026;-80
2023/10/07 11:14:43;;;;;;;74.28;69.10;;;;;;;;;;10476810;28;20009;-80
2023/10/07 11:19:44;;;;;;;15.63;11.15;;;;;;;;;;10460448;28;20131;-82
2023/10/07 11:24:50;;;;;;;13.88;9.00;;;;;;;;;;10455818;28;20078;-82
2023/10/07 11:30:02;;;;;;;17.80;9.35;;;;;;;;;;10476440;28;20017;-82
2023/10/07 11:35:05;;;;;;;24.98;22.27;;;;;;;;;;10466114;28;20041;-87
2023/10/07 11:40:11;;;;;;;186.20;173.18;;;;;;;;;;10462685;28;20025;-78
2023/10/07 11:45:11;;;;;;;265.30;246.32;;;;;;;;;;10465499;28;20571;-83
2023/10/07 11:50:12;;;;;;;282.45;261.85;;;;;;;;;;10453055;28;20021;-80
2023/10/07 11:55:12;;;;;;;335.30;310.52;;;;;;;;;;10467852;28;20024;-79
2023/10/07 12:05:50;;;;;;;229.07;213.43;;;;;;;;;;10422097;28;20622;-84
2023/10/07 12:11:00;;;;;;;178.52;166.63;;;;;;;;;;10479480;28;20027;-82
2023/10/07 12:16:25;;;;;;;176.27;164.93;;;;;;;;;;10475549;28;20036;-83
2023/10/07 12:21:47;;;;;;;171.18;160.02;;;;;;;;;;10459016;28;20036;-80
2023/10/07 12:26:50;;;;;;;330.80;307.10;;;;;;;;;;10460856;28;20381;-84
2023/10/07 12:31:51;;;;;;;288.77;267.92;;;;;;;;;;10458556;28;20450;-82
2023/10/07 12:36:53;;;;;;;178.43;166.27;;;;;;;;;;10474962;28;20044;-84
2023/10/07 12:42:13;;;;;;;228.93;213.82;;;;;;;;;;10464515;28;20031;-81
2023/10/07 12:47:14;;;;;;;292.55;271.67;;;;;;;;;;10457023;28;20024;-80
2023/10/07 12:52:16;;;;;;;408.95;379.85;;;;;;;;;;10461812;28;20013;-86
2023/10/07 12:57:20;;;;;;;391.92;363.63;;;;;;;;;;10465674;28;20025;-88
2023/10/07 13:02:21;;;;;;;347.10;322.45;;;;;;;;;;10462856;28;20119;-81
2023/10/07 13:07:23;;;;;;;423.38;392.50;;;;;;;;;;10474764;28;20040;-81
2023/10/07 13:12:24;;;;;;;434.48;403.58;;;;;;;;;;10471504;28;20020;-83
2023/10/07 13:17:24;;;;;;;559.42;518.35;;;;;;;;;;10464303;28;20085;-80
2023/10/07 13:22:25;;;;;;;592.00;548.25;;;;;;;;;;10471269;28;20028;-85
2023/10/07 13:27:26;;;;;;;643.92;594.22;;;;;;;;;;10474531;28;21942;-83
2023/10/07 13:32:27;;;;;;;617.00;570.80;;;;;;;;;;10456749;28;20036;-78
2023/10/07 13:37:31;;;;;;;742.17;683.13;;;;;;;;;;10473145;28;20045;-84
2023/10/07 13:42:31;;;;;;;803.25;739.40;;;;;;;;;;10463124;28;20405;-82
2023/10/07 13:47:32;;;;;;;811.92;747.92;;;;;;;;;;10460204;28;20012;-81
2023/10/07 13:52:40;;;;;;;845.27;778.17;;;;;;;;;;10462480;28;20024;-85
2023/10/07 13:57:42;;;;;;;913.75;842.45;;;;;;;;;;10453133;28;20477;-80
2023/10/07 14:02:44;;;;;;;992.08;914.45;;;;;;;;;;10463082;28;20016;-79
2023/10/07 14:07:44;;;;;;;1095.63;999.90;;;;;;;;;;10450330;28;20108;-82
2023/10/07 14:12:47;;;;;;;1076.70;991.00;;;;;;;;;;10468206;28;20499;-82
2023/10/07 14:17:48;;;;;;;1061.70;978.45;;;;;;;;;;10455834;28;20027;-80
2023/10/07 14:22:48;;;;;;;832.53;766.60;;;;;;;;;;10463203;28;20522;-83
2023/10/07 14:27:56;;;;;;;710.43;654.83;;;;;;;;;;10464401;28;20008;-84
2023/10/07 14:32:58;;;;;;;949.67;875.70;;;;;;;;;;10484347;28;20450;-83
2023/10/07 14:37:58;;;;;;;831.38;765.92;;;;;;;;;;10450122;28;20124;-81
2023/10/07 14:42:58;;;;;;;803.83;740.85;;;;;;;;;;10480078;28;20124;-82
2023/10/07 14:47:59;;;;;;;1018.25;938.92;;;;;;;;;;10466450;28;20542;-81
2023/10/07 14:53:01;;;;;;;1036.97;955.20;;;;;;;;;;10459211;28;20028;-83
2023/10/07 14:58:03;;;;;;;935.35;861.63;;;;;;;;;;10462244;28;20017;-81
2023/10/07 15:03:05;;;;;;;998.35;920.95;;;;;;;;;;10477484;28;20031;-82
2023/10/07 15:08:07;;;;;;;999.60;923.20;;;;;;;;;;10469179;28;20029;-84
2023/10/07 15:13:07;;;;;;;1080.03;987.63;;;;;;;;;;10469210;28;20097;-80
2023/10/07 15:18:12;;;;;;;994.35;918.88;;;;;;;;;;10462409;28;20039;-88
2023/10/07 15:23:12;;;;;;;1075.40;988.65;;;;;;;;;;10457190;28;20045;-80
2023/10/07 15:28:16;;;;;;;1064.47;967.73;;;;;;;;;;10468699;28;20173;-86
2023/10/07 15:33:17;;;;;;;1025.50;947.25;;;;;;;;;;10457831;28;20036;-82
2023/10/07 15:38:20;;;;;;;1062.10;973.27;;;;;;;;;;10451719;28;20049;-84
2023/10/07 15:43:33;;;;;;;927.17;844.80;;;;;;;;;;10462022;28;20025;-85
2023/10/07 15:48:42;;;;;;;851.00;786.92;;;;;;;;;;10460077;28;20037;-79
2023/10/07 15:53:44;;;;;;;379.17;348.55;;;;;;;;;;10464973;28;20028;-83
2023/10/07 15:58:44;;;;;;;13.52;4.65;;;;;;;;;;10466784;28;20487;-89
2023/10/07 16:03:45;;;;;;;14.45;3.40;;;;;;;;;;10469338;28;20021;-86
2023/10/07 16:08:46;;;;;;;11.95;4.00;;;;;;;;;;10443266;28;20048;-80
2023/10/07 16:13:46;;;;;;;12.63;4.03;;;;;;;;;;10458873;28;21014;-78
2023/10/07 16:18:48;;;;;;;11.57;4.00;;;;;;;;;;10453756;28;20033;-84
2023/10/07 16:23:50;;;;;;;11.98;3.90;;;;;;;;;;10459274;28;20027;-81
2023/10/07 16:28:54;;;;;;;14.32;4.00;;;;;;;;;;10455695;28;20060;-87
2023/10/07 16:33:54;;;;;;;8.27;4.00;;;;;;;;;;10458429;28;20468;-80
2023/10/07 16:38:54;;;;;;;10.38;3.85;;;;;;;;;;10458942;28;20107;-88
2023/10/07 16:43:55;;;;;;;10.43;4.15;;;;;;;;;;10471754;28;20055;-81
2023/10/07 16:48:56;;;;;;;14.90;4.77;;;;;;;;;;10450056;28;20036;-87
2023/10/07 16:53:56;;;;;;;8.18;4.13;;;;;;;;;;10465021;28;20636;-80
2023/10/07 16:58:58;;;;;;;8.80;4.45;;;;;;;;;;10462139;28;20036;-80
2023/10/07 17:04:19;;;;;;;9.38;4.40;;;;;;;;;;10478341;28;20070;-82
2023/10/07 17:09:22;;;;;;;14.05;5.18;;;;;;;;;;10466009;28;20044;-83
2023/10/07 17:14:22;;;;;;;11.40;4.50;;;;;;;;;;10458818;28;20012;-81
2023/10/07 17:19:23;;;;;;;9.52;4.43;;;;;;;;;;10474737;28;20111;-85
2023/10/07 17:24:23;;;;;;;10.13;4.03;;;;;;;;;;10462445;28;20033;-84
2023/10/07 17:29:25;;;;;;;11.52;3.67;;;;;;;;;;10472000;28;20028;-82
2023/10/07 17:34:30;;;;;;;6.82;3.50;;;;;;;;;;10474157;28;20029;-88
2023/10/07 17:39:30;;;;;;;11.73;3.83;;;;;;;;;;10474737;28;20467;-79
2023/10/07 17:44:31;;;;;;;8.50;3.17;;;;;;;;;;10456665;28;20082;-79
2023/10/07 17:49:31;;;;;;;16.15;12.25;;;;;;;;;;10476560;28;20459;-81
2023/10/07 17:54:32;;;;;;;27.73;22.00;;;;;;;;;;10479611;28;20021;-78
2023/10/07 17:59:33;;;;;;;19.20;16.65;;;;;;;;;;10450053;28;20392;-78
2023/10/07 18:04:35;;;;;;;22.02;9.32;;;;;;;;;;10457089;28;20027;-78
2023/10/07 18:09:36;;;;;;;13.25;7.85;;;;;;;;;;10449400;28;20036;-79
2023/10/07 18:14:36;;;;;;;19.20;5.78;;;;;;;;;;10451162;28;20319;-83
2023/10/07 18:19:36;;;;;;;11.77;4.70;;;;;;;;;;10464851;28;20089;-82
2023/10/07 18:24:37;;;;;;;8.88;4.25;;;;;;;;;;10460004;28;20013;-77
2023/10/07 18:29:39;;;;;;;10.63;4.30;;;;;;;;;;10453289;28;20017;-77
2023/10/07 18:34:39;;;;;;;9.57;4.35;;;;;;;;;;10454820;28;20013;-83
2023/10/07 18:39:40;;;;;;;9.45;4.28;;;;;;;;;;10451751;28;20016;-79
2023/10/07 18:44:40;;;;;;;9.10;4.03;;;;;;;;;;10462406;28;20086;-81
2023/10/07 18:49:41;;;;;;;10.53;3.37;;;;;;;;;;10462060;28;20019;-79
2023/10/07 18:54:41;;;;;;;11.60;4.20;;;;;;;;;;10454581;28;20074;-82
2023/10/07 18:59:42;;;;;;;7.53;3.72;;;;;;;;;;10450181;28;20063;-78
2023/10/07 19:04:42;;;;;;;11.40;4.00;;;;;;;;;;10454676;28;20052;-80
2023/10/07 19:09:42;;;;;;;11.90;4.68;;;;;;;;;;10460186;28;20469;-83
2023/10/07 19:14:45;;;;;;;8.05;3.25;;;;;;;;;;10467346;28;20424;-81
2023/10/07 19:19:46;;;;;;;13.35;4.45;;;;;;;;;;10455782;28;20029;-86
2023/10/07 19:24:48;;;;;;;12.23;4.78;;;;;;;;;;10455935;28;20097;-81
2023/10/07 19:29:49;;;;;;;9.32;3.50;;;;;;;;;;10460672;28;20020;-81
2023/10/07 19:34:52;;;;;;;8.23;3.85;;;;;;;;;;10451856;28;20037;-80
2023/10/07 19:39:53;;;;;;;12.35;5.03;;;;;;;;;;10444506;28;20081;-86
2023/10/07 19:44:54;;;;;;;11.27;6.43;;;;;;;;;;10455579;28;20029;-79
2023/10/07 19:49:54;;;;;;;28.33;7.72;;;;;;;;;;10451290;28;20027;-86
2023/10/07 19:54:55;;;;;;;33.38;28.05;;;;;;;;;;10433690;28;20021;-78
2023/10/07 20:00:01;;;;;;;40.13;36.88;;;;;;;;;;10458790;28;20021;-79
2023/10/07 20:05:02;;;;;;;24.52;20.70;;;;;;;;;;10455373;28;20028;-79
2023/10/07 20:10:05;;;;;;;57.27;53.57;;;;;;;;;;10470487;28;20021;-78
2023/10/07 20:15:07;;;;;;;87.60;82.40;;;;;;;;;;10473741;28;20151;-80
2023/10/07 20:20:10;;;;;;;45.30;42.33;;;;;;;;;;10452550;28;20093;-81
2023/10/07 20:25:11;;;;;;;93.22;87.75;;;;;;;;;;10475111;28;20497;-82
2023/10/07 20:30:14;;;;;;;202.98;191.43;;;;;;;;;;10470661;28;20066;-79
2023/10/07 20:35:19;;;;;;;164.43;154.85;;;;;;;;;;10461477;28;20768;-77
2023/10/07 20:40:19;;;;;;;76.38;71.00;;;;;;;;;;10461094;28;20289;-79
2023/10/07 20:45:23;;;;;;;186.13;175.52;;;;;;;;;;10460873;28;20013;-78
2023/10/07 20:50:24;;;;;;;175.90;165.75;;;;;;;;;;10462613;28;20409;-75
2023/10/07 20:55:24;;;;;;;103.88;97.95;;;;;;;;;;10458311;28;20028;-75
2023/10/07 21:00:24;;;;;;;200.98;189.02;;;;;;;;;;10463398;28;20033;-75
2023/10/07 21:05:26;;;;;;;172.55;162.73;;;;;;;;;;10462944;28;20043;-76
2023/10/07 21:10:27;;;;;;;167.25;157.95;;;;;;;;;;10470793;28;20036;-74
2023/10/07 21:15:32;;;;;;;298.45;281.20;;;;;;;;;;10492095;28;20051;-80
2023/10/07 21:20:39;;;;;;;324.55;305.00;;;;;;;;;;10487334;28;20029;-82
2023/10/07 21:25:41;;;;;;;472.73;443.23;;;;;;;;;;10486995;28;20028;-75
2023/10/07 21:30:42;;;;;;;284.83;267.73;;;;;;;;;;10472498;28;20032;-75
2023/10/07 21:35:43;;;;;;;375.13;352.42;;;;;;;;;;10486898;28;20045;-80
2023/10/07 21:40:44;;;;;;;420.77;394.52;;;;;;;;;;10469434;28;20404;-76
2023/10/07 21:45:44;;;;;;;316.08;297.35;;;;;;;;;;10488767;28;20032;-81
2023/10/07 21:50:44;;;;;;;468.42;438.75;;;;;;;;;;10476000;28;20175;-75
2023/10/07 21:55:46;;;;;;;379.07;355.67;;;;;;;;;;10482416;28;20031;-83
2023/10/07 22:00:56;;;;;;;496.35;463.90;;;;;;;;;;10471130;28;20044;-78
2023/10/07 22:05:57;;;;;;;431.85;405.13;;;;;;;;;;10452715;28;20102;-78
2023/10/07 22:10:57;;;;;;;484.98;453.50;;;;;;;;;;10460933;28;20096;-76
2023/10/07 22:15:59;;;;;;;487.33;456.70;;;;;;;;;;10476474;28;20028;-77
2023/10/07 22:21:03;;;;;;;504.65;472.30;;;;;;;;;;10485362;28;20021;-75
2023/10/07 22:26:07;;;;;;;588.97;550.17;;;;;;;;;;10502952;28;20023;-76
2023/10/07 22:31:11;;;;;;;531.75;498.05;;;;;;;;;;10470046;28;20061;-76
2023/10/07 22:36:21;;;;;;;595.25;556.33;;;;;;;;;;10453741;28;20044;-76
2023/10/07 22:41:28;;;;;;;524.17;490.65;;;;;;;;;;10465923;28;20056;-79
2023/10/07 22:46:31;;;;;;;562.55;526.78;;;;;;;;;;10486476;28;20054;-78
2023/10/07 22:51:32;;;;;;;631.47;590.05;;;;;;;;;;10473580;28;20089;-75
2023/10/07 22:56:33;;;;;;;644.45;602.20;;;;;;;;;;10504897;28;20028;-76
2023/10/07 23:06:39;;;;;;;563.08;527.75;;;;;;;;;;10463162;28;20049;-76
2023/10/07 23:11:48;;;;;;;679.00;634.80;;;;;;;;;;10480882;28;20555;-77
2023/10/07 23:16:52;;;;;;;816.97;760.55;;;;;;;;;;10487100;28;20090;-80
2023/10/07 23:26:56;;;;;;;780.67;728.28;;;;;;;;;;10484751;28;20019;-80
2023/10/07 23:31:57;;;;;;;861.15;800.20;;;;;;;;;;10486628;28;20763;-76
2023/10/07 23:36:58;;;;;;;858.60;797.15;;;;;;;;;;10480238;28;20184;-80
2023/10/07 23:42:11;;;;;;;882.95;818.30;;;;;;;;;;10467635;28;20016;-78
2023/10/07 23:47:15;;;;;;;876.08;812.60;;;;;;;;;;10467644;28;20025;-81
2023/10/07 23:52:18;;;;;;;876.65;813.88;;;;;;;;;;10467838;28;20488;-78
2023/10/07 23:57:22;;;;;;;848.28;785.65;;;;;;;;;;10469359;28;20077;-78
